createdAt,value
2017-10-25T00:02:01.284Z,14.06
2017-10-25T00:04:29.631Z,14.11
2017-10-25T00:06:57.996Z,14.04
2017-10-25T00:09:26.339Z,13.99
2017-10-25T00:11:54.707Z,14.01
2017-10-25T00:14:23.046Z,14.01
2017-10-25T00:16:51.391Z,13.93
2017-10-25T00:19:19.738Z,13.93
2017-10-25T00:21:48.118Z,13.97
2017-10-25T00:24:16.462Z,13.98
2017-10-25T00:26:44.820Z,14.08
2017-10-25T00:29:13.166Z,14.06
2017-10-25T00:31:41.526Z,14.03
2017-10-25T00:34:09.894Z,14.13
2017-10-25T00:36:38.300Z,14.08
2017-10-25T00:39:06.673Z,14.12
2017-10-25T00:41:35.047Z,14.01
2017-10-25T00:44:03.416Z,14.05
2017-10-25T00:46:31.794Z,14.05
2017-10-25T00:49:00.178Z,14.05
2017-10-25T00:51:28.569Z,14.09
2017-10-25T00:53:56.926Z,14.08
2017-10-25T00:56:25.310Z,14.11
2017-10-25T00:58:53.676Z,14.06
2017-10-25T01:01:22.074Z,14.21
2017-10-25T01:03:50.428Z,14.25
2017-10-25T01:06:18.807Z,14.13
2017-10-25T01:08:47.167Z,14.16
2017-10-25T01:11:15.548Z,14.21
2017-10-25T01:13:43.902Z,14.22
2017-10-25T01:16:12.286Z,14.20
2017-10-25T01:18:40.668Z,14.25
2017-10-25T01:21:09.057Z,14.15
2017-10-25T01:23:37.415Z,14.13
2017-10-25T01:26:05.771Z,14.18
2017-10-25T01:28:34.131Z,14.14
2017-10-25T01:31:02.507Z,14.16
2017-10-25T01:33:30.859Z,14.31
2017-10-25T01:35:59.238Z,14.10
2017-10-25T01:38:27.622Z,14.04
2017-10-25T01:40:56.030Z,14.16
2017-10-25T01:43:24.437Z,14.18
2017-10-25T01:45:52.784Z,14.13
2017-10-25T01:48:21.184Z,14.18
2017-10-25T01:50:49.565Z,14.11
2017-10-25T01:53:17.923Z,14.14
2017-10-25T01:55:46.312Z,14.13
2017-10-25T01:58:14.663Z,14.09
2017-10-25T02:00:43.054Z,14.09
2017-10-25T02:03:11.434Z,14.15
2017-10-25T02:05:39.815Z,14.12
2017-10-25T02:08:08.200Z,14.20
2017-10-25T02:10:36.592Z,14.09
2017-10-25T02:13:04.975Z,14.15
2017-10-25T02:15:33.328Z,14.07
2017-10-25T02:18:01.702Z,14.08
2017-10-25T02:20:30.054Z,13.96
2017-10-25T02:22:58.433Z,14.02
2017-10-25T02:25:26.782Z,14.07
2017-10-25T02:27:55.172Z,14.12
2017-10-25T02:30:23.525Z,14.10
2017-10-25T02:32:51.894Z,14.08
2017-10-25T02:35:20.239Z,14.01
2017-10-25T02:37:48.620Z,14.02
2017-10-25T02:40:16.957Z,13.97
2017-10-25T02:42:45.340Z,13.93
2017-10-25T02:45:13.689Z,13.95
2017-10-25T02:47:42.064Z,13.94
2017-10-25T02:50:10.426Z,13.97
2017-10-25T02:52:38.759Z,13.97
2017-10-25T02:55:07.109Z,14.00
2017-10-25T02:57:35.483Z,14.04
2017-10-25T03:00:03.834Z,13.97
2017-10-25T03:02:32.199Z,13.92
2017-10-25T03:05:00.549Z,13.98
2017-10-25T03:07:28.903Z,13.87
2017-10-25T03:09:57.278Z,13.88
2017-10-25T03:12:25.633Z,13.93
2017-10-25T03:14:54.109Z,13.93
2017-10-25T03:17:22.460Z,13.84
2017-10-25T03:19:50.802Z,13.91
2017-10-25T03:22:19.186Z,13.79
2017-10-25T03:24:47.558Z,13.80
2017-10-25T03:27:15.915Z,13.91
2017-10-25T03:29:44.282Z,13.83
2017-10-25T03:32:12.664Z,13.85
2017-10-25T03:34:41.011Z,13.91
2017-10-25T03:37:09.358Z,13.90
2017-10-25T03:39:37.700Z,13.92
2017-10-25T03:42:06.047Z,13.97
2017-10-25T03:44:34.414Z,13.96
2017-10-25T03:47:02.762Z,13.96
2017-10-25T03:49:31.143Z,13.94
2017-10-25T03:51:59.488Z,13.90
2017-10-25T03:54:27.821Z,13.82
2017-10-25T03:56:56.162Z,13.92
2017-10-25T03:59:24.519Z,13.86
2017-10-25T04:01:52.983Z,13.85
2017-10-25T04:04:21.335Z,13.92
2017-10-25T04:06:49.676Z,13.91
2017-10-25T04:09:18.020Z,13.93
2017-10-25T04:11:46.494Z,13.90
2017-10-25T04:14:14.830Z,13.87
2017-10-25T04:16:43.182Z,13.81
2017-10-25T04:19:11.531Z,13.87
2017-10-25T04:21:39.919Z,13.83
2017-10-25T04:24:08.264Z,13.82
2017-10-25T04:26:36.640Z,13.81
2017-10-25T04:29:05.006Z,13.81
2017-10-25T04:31:33.386Z,13.83
2017-10-25T04:34:01.771Z,13.83
2017-10-25T04:36:30.114Z,13.83
2017-10-25T04:38:58.478Z,13.90
2017-10-25T04:41:26.862Z,13.94
2017-10-25T04:43:55.215Z,13.94
2017-10-25T04:46:23.591Z,13.88
2017-10-25T04:48:51.936Z,13.95
2017-10-25T04:51:20.311Z,13.95
2017-10-25T04:53:48.659Z,13.95
2017-10-25T04:56:17.035Z,13.90
2017-10-25T04:58:45.382Z,13.92
2017-10-25T05:01:13.751Z,13.99
2017-10-25T05:03:42.108Z,13.95
2017-10-25T05:06:10.467Z,13.99
2017-10-25T05:08:38.824Z,13.92
2017-10-25T05:11:07.167Z,13.93
2017-10-25T05:13:35.534Z,13.91
2017-10-25T05:16:03.879Z,13.76
2017-10-25T05:18:32.246Z,13.87
2017-10-25T05:21:00.598Z,13.97
2017-10-25T05:23:28.974Z,13.98
2017-10-25T05:25:57.330Z,14.06
2017-10-25T05:28:25.682Z,13.91
2017-10-25T05:31:01.147Z,13.99
2017-10-25T05:33:29.478Z,13.95
2017-10-25T05:35:57.842Z,14.00
2017-10-25T05:38:26.190Z,14.00
2017-10-25T05:40:55.174Z,14.05
2017-10-25T05:43:23.535Z,14.05
2017-10-25T05:45:51.881Z,13.99
2017-10-25T05:48:20.264Z,14.01
2017-10-25T05:50:48.617Z,14.01
2017-10-25T05:53:17.217Z,14.00
2017-10-25T05:55:45.819Z,14.08
2017-10-25T05:58:14.452Z,14.00
2017-10-25T06:00:42.981Z,13.98
2017-10-25T06:03:11.977Z,13.96
2017-10-25T06:05:40.622Z,13.91
2017-10-25T06:08:09.023Z,13.94
2017-10-25T06:10:37.371Z,13.92
2017-10-25T06:13:05.715Z,13.93
2017-10-25T06:15:34.072Z,13.88
2017-10-25T06:18:02.403Z,13.86
2017-10-25T06:20:30.775Z,13.84
2017-10-25T06:22:59.135Z,13.90
2017-10-25T06:25:27.499Z,13.87
2017-10-25T06:27:55.847Z,13.88
2017-10-25T06:30:24.222Z,13.94
2017-10-25T06:32:52.580Z,13.83
2017-10-25T06:35:20.959Z,13.85
2017-10-25T06:37:49.304Z,13.82
2017-10-25T06:40:17.647Z,13.81
2017-10-25T06:42:46.015Z,13.83
2017-10-25T06:45:14.362Z,13.80
2017-10-25T06:47:42.728Z,13.82
2017-10-25T06:50:11.166Z,13.92
2017-10-25T06:52:39.548Z,13.82
2017-10-25T06:55:07.914Z,13.82
2017-10-25T06:57:36.255Z,13.90
2017-10-25T07:00:04.619Z,13.87
2017-10-25T07:02:32.968Z,13.87
2017-10-25T07:05:01.315Z,13.94
2017-10-25T07:07:29.698Z,13.86
2017-10-25T07:09:58.031Z,13.86
2017-10-25T07:12:26.395Z,13.88
2017-10-25T07:14:54.737Z,13.90
2017-10-25T07:17:23.117Z,13.96
2017-10-25T07:19:51.456Z,13.95
2017-10-25T07:22:19.808Z,14.02
2017-10-25T07:24:48.191Z,14.04
2017-10-25T07:27:17.116Z,14.16
2017-10-25T07:29:45.472Z,14.20
2017-10-25T07:32:13.840Z,14.33
2017-10-25T07:34:42.183Z,14.30
2017-10-25T07:37:10.551Z,14.36
2017-10-25T07:39:38.905Z,14.46
2017-10-25T07:42:07.258Z,14.52
2017-10-25T07:44:35.596Z,14.47
2017-10-25T07:47:04.064Z,14.53
2017-10-25T07:49:32.485Z,14.69
2017-10-25T07:52:00.827Z,14.85
2017-10-25T07:54:29.191Z,14.77
2017-10-25T07:56:57.556Z,14.91
2017-10-25T07:59:25.945Z,14.79
2017-10-25T08:01:54.313Z,14.76
2017-10-25T08:04:22.676Z,14.68
2017-10-25T08:06:51.008Z,14.81
2017-10-25T08:09:19.389Z,14.69
2017-10-25T08:11:47.827Z,14.60
2017-10-25T08:14:16.429Z,14.60
2017-10-25T08:16:44.802Z,14.72
2017-10-25T08:19:13.142Z,14.78
2017-10-25T08:21:41.529Z,14.96
2017-10-25T08:24:09.864Z,15.23
2017-10-25T08:26:38.235Z,15.37
2017-10-25T08:29:06.572Z,15.45
2017-10-25T08:31:34.936Z,15.39
2017-10-25T08:34:03.283Z,15.34
2017-10-25T08:36:31.676Z,15.36
2017-10-25T08:39:00.025Z,15.24
2017-10-25T08:41:28.371Z,15.23
2017-10-25T08:43:56.724Z,15.41
2017-10-25T08:46:25.073Z,15.59
2017-10-25T08:48:53.450Z,15.74
2017-10-25T08:51:21.779Z,15.41
2017-10-25T08:53:50.125Z,15.49
2017-10-25T08:56:18.476Z,15.41
2017-10-25T08:58:46.821Z,15.64
2017-10-25T09:01:15.155Z,15.49
2017-10-25T09:03:43.494Z,15.46
2017-10-25T09:06:11.870Z,15.30
2017-10-25T09:08:40.234Z,15.66
2017-10-25T09:11:08.610Z,15.74
2017-10-25T09:13:36.946Z,15.32
2017-10-25T09:16:05.326Z,15.44
2017-10-25T09:18:33.680Z,15.79
2017-10-25T09:21:02.217Z,15.89
2017-10-25T09:23:30.579Z,15.71
2017-10-25T09:25:59.014Z,15.41
2017-10-25T09:28:27.362Z,15.12
2017-10-25T09:30:55.703Z,15.21
2017-10-25T09:33:24.077Z,15.45
2017-10-25T09:35:52.470Z,15.77
2017-10-25T09:38:20.817Z,15.79
2017-10-25T09:40:49.187Z,15.91
2017-10-25T09:43:17.707Z,16.30
2017-10-25T09:45:46.090Z,16.15
2017-10-25T09:48:14.476Z,16.77
2017-10-25T09:50:42.846Z,17.41
2017-10-25T09:53:11.232Z,16.77
2017-10-25T09:55:39.563Z,16.65
2017-10-25T09:58:07.899Z,16.73
2017-10-25T10:00:36.266Z,16.50
2017-10-25T10:03:04.640Z,16.99
2017-10-25T10:05:32.974Z,17.11
2017-10-25T10:08:01.334Z,17.03
2017-10-25T10:10:29.676Z,17.20
2017-10-25T10:12:58.006Z,17.22
2017-10-25T10:15:26.421Z,17.65
2017-10-25T10:17:54.771Z,17.77
2017-10-25T10:20:23.145Z,17.38
2017-10-25T10:22:51.514Z,17.60
2017-10-25T10:25:19.855Z,17.44
2017-10-25T10:27:48.236Z,17.13
2017-10-25T10:30:16.575Z,16.53
2017-10-25T10:32:44.976Z,16.58
2017-10-25T10:35:13.327Z,16.95
2017-10-25T10:37:41.707Z,16.90
2017-10-25T10:40:10.082Z,16.55
2017-10-25T10:42:38.436Z,16.44
2017-10-25T10:45:06.792Z,16.42
2017-10-25T10:47:35.155Z,16.22
2017-10-25T10:50:03.489Z,16.26
2017-10-25T10:52:31.859Z,15.98
2017-10-25T10:55:00.195Z,16.35
2017-10-25T10:57:28.546Z,16.08
2017-10-25T10:59:56.888Z,16.03
2017-10-25T11:02:25.271Z,15.77
2017-10-25T11:04:53.648Z,15.86
2017-10-25T11:07:22.008Z,15.97
2017-10-25T11:09:50.378Z,15.75
2017-10-25T11:12:18.732Z,15.77
2017-10-25T11:14:47.106Z,15.74
2017-10-25T11:17:16.131Z,15.69
2017-10-25T11:19:44.544Z,15.51
2017-10-25T11:22:12.884Z,15.25
2017-10-25T11:24:41.235Z,15.60
2017-10-25T11:27:09.603Z,15.81
2017-10-25T11:29:37.984Z,15.89
2017-10-25T11:32:06.346Z,16.05
2017-10-25T11:34:34.734Z,16.92
2017-10-25T11:37:04.387Z,18.26
2017-10-25T11:39:32.746Z,18.25
2017-10-25T11:42:01.084Z,18.11
2017-10-25T11:44:29.679Z,17.71
2017-10-25T11:46:58.032Z,17.39
2017-10-25T11:49:26.374Z,17.07
2017-10-25T11:51:54.727Z,16.89
2017-10-25T11:54:23.095Z,16.63
2017-10-25T11:56:51.465Z,16.53
2017-10-25T11:59:19.833Z,16.53
2017-10-25T12:01:48.211Z,16.38
2017-10-25T12:04:16.571Z,16.56
2017-10-25T12:06:44.904Z,16.74
2017-10-25T12:09:13.291Z,18.12
2017-10-25T12:11:41.655Z,18.44
2017-10-25T12:14:10.004Z,17.74
2017-10-25T12:16:38.349Z,17.11
2017-10-25T12:19:06.692Z,16.70
2017-10-25T12:21:35.055Z,16.30
2017-10-25T12:24:03.399Z,16.15
2017-10-25T12:26:31.760Z,15.98
2017-10-25T12:29:00.105Z,15.86
2017-10-25T12:31:28.455Z,16.78
2017-10-25T12:33:56.791Z,17.28
2017-10-25T12:36:25.141Z,17.18
2017-10-25T12:38:53.510Z,16.89
2017-10-25T12:41:21.867Z,16.38
2017-10-25T12:43:50.234Z,16.06
2017-10-25T12:46:18.575Z,16.00
2017-10-25T12:48:46.938Z,16.05
2017-10-25T12:51:15.306Z,16.26
2017-10-25T12:53:43.652Z,16.08
2017-10-25T12:56:11.996Z,15.88
2017-10-25T12:58:40.337Z,16.14
2017-10-25T13:01:08.697Z,16.15
2017-10-25T13:03:37.050Z,15.80
2017-10-25T13:06:05.435Z,15.64
2017-10-25T13:08:33.775Z,15.64
2017-10-25T13:11:03.533Z,15.60
2017-10-25T13:13:34.311Z,15.73
2017-10-25T13:16:06.671Z,15.50
2017-10-25T13:18:39.034Z,15.21
2017-10-25T13:21:07.595Z,15.21
2017-10-25T13:23:35.927Z,15.18
2017-10-25T13:26:04.312Z,15.13
2017-10-25T13:28:32.656Z,15.09
2017-10-25T13:31:01.072Z,14.91
2017-10-25T13:33:29.447Z,14.90
2017-10-25T13:35:57.815Z,15.12
2017-10-25T13:38:26.187Z,14.96
2017-10-25T13:40:54.559Z,15.20
2017-10-25T13:43:22.976Z,15.20
2017-10-25T13:46:02.007Z,15.17
2017-10-25T13:48:30.481Z,14.87
2017-10-25T13:50:58.844Z,14.91
2017-10-25T13:53:27.200Z,14.78
2017-10-25T13:55:55.587Z,14.52
2017-10-25T13:58:23.947Z,14.60
2017-10-25T14:00:52.444Z,14.53
2017-10-25T14:03:20.875Z,14.33
2017-10-25T14:05:49.218Z,14.30
2017-10-25T14:08:31.499Z,14.24
2017-10-25T14:11:00.201Z,14.12
2017-10-25T14:13:29.671Z,14.25
2017-10-25T14:15:59.604Z,14.32
2017-10-25T14:18:28.000Z,14.19
2017-10-25T14:20:56.359Z,14.24
2017-10-25T14:23:24.852Z,14.30
2017-10-25T14:25:53.219Z,14.20
2017-10-25T14:28:33.197Z,14.17
2017-10-25T14:31:01.570Z,14.13
2017-10-25T14:33:29.957Z,14.07
2017-10-25T14:35:58.391Z,14.12
2017-10-25T14:38:26.750Z,14.00
2017-10-25T14:40:55.110Z,14.23
2017-10-25T14:43:23.512Z,14.17
2017-10-25T14:45:52.798Z,14.21
2017-10-25T14:48:22.004Z,14.06
2017-10-25T14:50:50.387Z,13.98
2017-10-25T14:53:18.832Z,14.06
2017-10-25T14:55:47.207Z,14.13
2017-10-25T14:58:15.675Z,14.18
2017-10-25T15:00:44.031Z,14.00
2017-10-25T15:03:12.410Z,14.13
2017-10-25T15:05:40.780Z,14.10
2017-10-25T15:08:09.159Z,14.15
2017-10-25T15:10:37.526Z,14.08
2017-10-25T15:13:05.901Z,14.04
2017-10-25T15:15:34.264Z,13.62
2017-10-25T15:18:02.653Z,13.48
2017-10-25T15:20:31.025Z,13.40
2017-10-25T15:22:59.391Z,13.39
2017-10-25T15:25:27.747Z,13.42
2017-10-25T15:27:56.115Z,13.46
2017-10-25T15:30:24.467Z,13.45
2017-10-25T15:32:52.851Z,13.28
2017-10-25T15:35:21.240Z,13.35
2017-10-25T15:37:49.600Z,13.38
2017-10-25T15:40:17.982Z,13.26
2017-10-25T15:42:46.369Z,13.42
2017-10-25T15:45:14.726Z,13.47
2017-10-25T15:47:43.147Z,13.41
2017-10-25T15:50:11.510Z,13.39
2017-10-25T15:52:39.862Z,13.46
2017-10-25T15:55:08.223Z,13.34
2017-10-25T15:57:36.574Z,13.40
2017-10-25T16:00:04.975Z,13.48
2017-10-25T16:02:33.341Z,13.44
2017-10-25T16:05:01.700Z,13.36
2017-10-25T16:07:30.995Z,13.43
2017-10-25T16:09:59.391Z,13.35
2017-10-25T16:12:27.796Z,13.48
2017-10-25T16:14:56.199Z,13.53
2017-10-25T16:17:24.545Z,13.50
2017-10-25T16:19:52.929Z,13.48
2017-10-25T16:22:21.304Z,13.44
2017-10-25T16:24:49.683Z,13.23
2017-10-25T16:27:18.064Z,13.40
2017-10-25T16:29:46.411Z,13.38
2017-10-25T16:32:14.784Z,13.33
2017-10-25T16:34:43.178Z,13.46
2017-10-25T16:37:11.523Z,13.22
2017-10-25T16:39:39.875Z,13.29
2017-10-25T16:42:08.218Z,13.32
2017-10-25T16:44:36.596Z,13.22
2017-10-25T16:47:04.972Z,13.22
2017-10-25T16:49:33.331Z,13.18
2017-10-25T16:52:01.710Z,13.21
2017-10-25T16:54:30.114Z,13.11
2017-10-25T16:56:58.474Z,13.15
2017-10-25T16:59:26.856Z,13.30
2017-10-25T17:01:55.215Z,13.25
2017-10-25T17:04:23.595Z,13.13
2017-10-25T17:06:51.972Z,13.22
2017-10-25T17:09:20.339Z,13.11
2017-10-25T17:11:49.647Z,13.20
2017-10-25T17:14:17.996Z,13.31
2017-10-25T17:16:46.388Z,13.25
2017-10-25T17:19:14.742Z,13.18
2017-10-25T17:21:43.119Z,13.31
2017-10-25T17:24:11.466Z,13.42
2017-10-25T17:26:39.855Z,13.35
2017-10-25T17:29:08.206Z,13.23
2017-10-25T17:31:36.603Z,13.37
2017-10-25T17:34:04.980Z,13.24
2017-10-25T17:36:33.364Z,13.29
2017-10-25T17:39:01.758Z,13.34
2017-10-25T17:41:30.106Z,13.40
2017-10-25T17:43:58.466Z,13.53
2017-10-25T17:46:26.854Z,13.42
2017-10-25T17:48:55.207Z,13.43
2017-10-25T17:51:23.595Z,13.34
2017-10-25T17:53:51.943Z,13.40
2017-10-25T17:56:20.315Z,13.38
2017-10-25T17:58:48.657Z,13.22
2017-10-25T18:01:17.052Z,13.42
2017-10-25T18:03:45.395Z,13.46
2017-10-25T18:06:14.019Z,13.38
2017-10-25T18:08:42.467Z,13.26
2017-10-25T18:11:10.821Z,13.30
2017-10-25T18:13:39.162Z,13.33
2017-10-25T18:16:07.527Z,13.32
2017-10-25T18:18:35.871Z,13.33
2017-10-25T18:21:04.246Z,13.42
2017-10-25T18:23:32.667Z,13.42
2017-10-25T18:26:01.036Z,13.26
2017-10-25T18:28:29.390Z,13.10
2017-10-25T18:30:57.739Z,13.15
2017-10-25T18:33:26.091Z,13.02
2017-10-25T18:35:54.452Z,13.16
2017-10-25T18:38:22.790Z,13.33
2017-10-25T18:40:51.176Z,13.25
2017-10-25T18:43:19.531Z,13.27
2017-10-25T18:45:47.892Z,13.30
2017-10-25T18:48:16.275Z,13.16
2017-10-25T18:50:44.623Z,13.15
2017-10-25T18:53:12.999Z,13.16
2017-10-25T18:55:41.358Z,13.07
2017-10-25T18:58:09.713Z,13.08
2017-10-25T19:00:38.089Z,13.08
2017-10-25T19:03:06.482Z,12.99
2017-10-25T19:05:34.875Z,13.05
2017-10-25T19:08:03.257Z,13.01
2017-10-25T19:10:31.635Z,12.96
2017-10-25T19:12:59.994Z,12.93
2017-10-25T19:15:28.367Z,12.91
2017-10-25T19:17:56.824Z,12.88
2017-10-25T19:20:25.202Z,12.91
2017-10-25T19:22:53.546Z,12.84
2017-10-25T19:25:21.922Z,12.77
2017-10-25T19:27:50.301Z,12.85
2017-10-25T19:30:18.686Z,12.85
2017-10-25T19:32:47.046Z,12.87
2017-10-25T19:35:15.475Z,12.88
2017-10-25T19:37:43.855Z,12.88
2017-10-25T19:40:12.252Z,12.83
2017-10-25T19:42:40.607Z,12.73
2017-10-25T19:45:08.997Z,12.64
2017-10-25T19:47:37.354Z,12.76
2017-10-25T19:50:05.736Z,12.68
2017-10-25T19:52:34.111Z,12.73
2017-10-25T19:55:02.767Z,12.71
2017-10-25T19:57:32.388Z,12.63
2017-10-25T20:00:00.739Z,12.62
2017-10-25T20:02:29.104Z,12.76
2017-10-25T20:04:57.462Z,12.79
2017-10-25T20:07:25.843Z,12.67
2017-10-25T20:09:54.203Z,12.75
2017-10-25T20:12:22.573Z,12.73
2017-10-25T20:14:50.958Z,12.72
2017-10-25T20:17:19.323Z,12.78
2017-10-25T20:19:47.720Z,12.73
2017-10-25T20:22:16.096Z,12.78
2017-10-25T20:24:44.444Z,12.77
2017-10-25T20:27:12.791Z,12.78
2017-10-25T20:29:41.218Z,12.75
2017-10-25T20:32:09.571Z,12.68
2017-10-25T20:34:37.932Z,12.68
2017-10-25T20:37:06.313Z,12.73
2017-10-25T20:39:34.683Z,12.67
2017-10-25T20:42:03.060Z,12.69
2017-10-25T20:44:31.409Z,12.72
2017-10-25T20:46:59.808Z,12.72
2017-10-25T20:49:28.222Z,12.65
2017-10-25T20:51:56.571Z,12.59
2017-10-25T20:54:24.954Z,12.64
2017-10-25T20:56:53.313Z,12.57
2017-10-25T20:59:21.666Z,12.41
2017-10-25T21:01:50.104Z,12.47
2017-10-25T21:04:18.518Z,12.56
2017-10-25T21:06:46.914Z,12.61
2017-10-25T21:09:15.398Z,12.46
2017-10-25T21:11:43.743Z,12.44
2017-10-25T21:14:12.154Z,12.48
2017-10-25T21:16:40.512Z,12.38
2017-10-25T21:19:08.888Z,12.36
2017-10-25T21:21:37.254Z,12.44
2017-10-25T21:24:05.602Z,12.43
2017-10-25T21:26:33.992Z,12.51
2017-10-25T21:29:02.348Z,12.40
2017-10-25T21:31:30.804Z,12.42
2017-10-25T21:33:59.150Z,12.50
2017-10-25T21:36:27.498Z,12.36
2017-10-25T21:38:55.910Z,12.28
2017-10-25T21:41:24.263Z,12.32
2017-10-25T21:43:52.639Z,12.42
2017-10-25T21:46:21.036Z,12.49
2017-10-25T21:48:49.386Z,12.41
2017-10-25T21:51:17.858Z,12.36
2017-10-25T21:53:46.235Z,12.40
2017-10-25T21:56:14.607Z,12.50
2017-10-25T21:58:42.991Z,12.60
2017-10-25T22:01:11.367Z,12.42
2017-10-25T22:03:39.767Z,12.44
2017-10-25T22:06:08.200Z,12.60
2017-10-25T22:08:37.847Z,12.53
2017-10-25T22:11:06.286Z,12.63
2017-10-25T22:13:34.636Z,12.59
2017-10-25T22:16:02.998Z,12.65
2017-10-25T22:18:31.360Z,12.73
2017-10-25T22:20:59.748Z,12.65
2017-10-25T22:23:28.107Z,12.61
2017-10-25T22:25:57.433Z,12.64
2017-10-25T22:28:26.133Z,12.58
2017-10-25T22:30:54.493Z,12.68
2017-10-25T22:33:22.871Z,12.53
2017-10-25T22:35:51.225Z,12.47
2017-10-25T22:38:19.587Z,12.52
2017-10-25T22:40:47.955Z,12.45
2017-10-25T22:43:16.393Z,12.49
2017-10-25T22:45:44.853Z,12.46
2017-10-25T22:48:13.213Z,12.61
2017-10-25T22:50:41.619Z,12.60
2017-10-25T22:53:10.004Z,12.62
2017-10-25T22:55:38.396Z,12.51
2017-10-25T22:58:06.782Z,12.65
2017-10-25T23:00:35.151Z,12.48
2017-10-25T23:03:03.514Z,12.64
2017-10-25T23:05:32.007Z,12.74
2017-10-25T23:08:00.370Z,12.52
2017-10-25T23:10:28.731Z,12.48
2017-10-25T23:12:57.099Z,12.44
2017-10-25T23:15:25.474Z,12.50
2017-10-25T23:17:53.843Z,12.45
2017-10-25T23:20:22.201Z,12.45
2017-10-25T23:22:50.579Z,12.55
2017-10-25T23:25:18.957Z,12.53
2017-10-25T23:27:47.330Z,12.55
2017-10-25T23:30:15.678Z,12.47
2017-10-25T23:32:44.962Z,12.41
2017-10-25T23:35:13.382Z,12.53
2017-10-25T23:37:41.735Z,12.49
2017-10-25T23:40:10.083Z,12.22
2017-10-25T23:42:38.448Z,12.32
2017-10-25T23:45:06.839Z,12.31
2017-10-25T23:47:35.182Z,12.32
2017-10-25T23:50:03.549Z,12.44
2017-10-25T23:55:06.409Z,12.26
2017-10-25T23:57:36.608Z,12.43
